sensor_id;sensor_type;location;lat;lon;timestamp;temperature;humidity
3256;DHT22;1640;48.504;9.224;2022-07-03T00:02:01;19.10;71.80
3256;DHT22;1640;48.504;9.224;2022-07-03T00:04:29;19.00;70.80
3256;DHT22;1640;48.504;9.224;2022-07-03T00:06:56;19.00;70.30
3256;DHT22;1640;48.504;9.224;2022-07-03T00:09:24;18.90;69.90
3256;DHT22;1640;48.504;9.224;2022-07-03T00:11:51;18.80;69.80
3256;DHT22;1640;48.504;9.224;2022-07-03T00:14:19;18.80;69.50
3256;DHT22;1640;48.504;9.224;2022-07-03T00:16:48;18.70;69.00
3256;DHT22;1640;48.504;9.224;2022-07-03T00:19:16;18.70;68.20
3256;DHT22;1640;48.504;9.224;2022-07-03T00:21:46;18.70;69.00
3256;DHT22;1640;48.504;9.224;2022-07-03T00:24:20;18.70;68.30
3256;DHT22;1640;48.504;9.224;2022-07-03T00:26:52;18.70;69.00
3256;DHT22;1640;48.504;9.224;2022-07-03T00:29:22;18.70;68.80
3256;DHT22;1640;48.504;9.224;2022-07-03T00:31:52;18.70;68.90
3256;DHT22;1640;48.504;9.224;2022-07-03T00:34:23;18.60;68.90
3256;DHT22;1640;48.504;9.224;2022-07-03T00:36:52;18.60;69.30
3256;DHT22;1640;48.504;9.224;2022-07-03T00:39:20;18.60;68.50
3256;DHT22;1640;48.504;9.224;2022-07-03T00:41:59;18.60;68.30
3256;DHT22;1640;48.504;9.224;2022-07-03T00:44:28;18.60;68.80
3256;DHT22;1640;48.504;9.224;2022-07-03T00:46:58;18.60;66.00
3256;DHT22;1640;48.504;9.224;2022-07-03T00:49:27;18.50;63.90
3256;DHT22;1640;48.504;9.224;2022-07-03T00:51:56;18.40;62.00
3256;DHT22;1640;48.504;9.224;2022-07-03T00:54:26;18.30;60.90
3256;DHT22;1640;48.504;9.224;2022-07-03T00:56:55;18.30;60.90
3256;DHT22;1640;48.504;9.224;2022-07-03T00:59:24;18.30;60.90
3256;DHT22;1640;48.504;9.224;2022-07-03T01:01:55;18.20;60.90
3256;DHT22;1640;48.504;9.224;2022-07-03T01:04:36;18.20;61.40
3256;DHT22;1640;48.504;9.224;2022-07-03T01:07:11;18.10;60.30
3256;DHT22;1640;48.504;9.224;2022-07-03T01:09:49;18.10;58.40
3256;DHT22;1640;48.504;9.224;2022-07-03T01:12:27;18.00;53.90
3256;DHT22;1640;48.504;9.224;2022-07-03T01:15:05;17.80;49.70
3256;DHT22;1640;48.504;9.224;2022-07-03T01:17:39;17.70;47.40
3256;DHT22;1640;48.504;9.224;2022-07-03T01:20:08;17.60;44.80
3256;DHT22;1640;48.504;9.224;2022-07-03T01:22:37;17.50;42.50
3256;DHT22;1640;48.504;9.224;2022-07-03T01:25:23;17.40;41.00
3256;DHT22;1640;48.504;9.224;2022-07-03T01:28:10;17.30;40.20
3256;DHT22;1640;48.504;9.224;2022-07-03T01:30:39;17.30;39.00
3256;DHT22;1640;48.504;9.224;2022-07-03T01:33:09;17.20;37.90
3256;DHT22;1640;48.504;9.224;2022-07-03T01:35:38;17.10;37.10
3256;DHT22;1640;48.504;9.224;2022-07-03T01:38:08;17.10;37.10
3256;DHT22;1640;48.504;9.224;2022-07-03T01:40:38;17.10;40.60
3256;DHT22;1640;48.504;9.224;2022-07-03T01:43:08;17.10;43.00
3256;DHT22;1640;48.504;9.224;2022-07-03T01:45:39;17.10;45.10
3256;DHT22;1640;48.504;9.224;2022-07-03T01:48:09;17.00;47.50
3256;DHT22;1640;48.504;9.224;2022-07-03T01:50:38;17.00;49.00
3256;DHT22;1640;48.504;9.224;2022-07-03T01:53:08;17.00;49.70
3256;DHT22;1640;48.504;9.224;2022-07-03T01:55:42;16.90;49.00
3256;DHT22;1640;48.504;9.224;2022-07-03T01:58:11;16.90;48.70
3256;DHT22;1640;48.504;9.224;2022-07-03T02:00:43;16.90;48.70
3256;DHT22;1640;48.504;9.224;2022-07-03T02:03:26;16.80;47.80
3256;DHT22;1640;48.504;9.224;2022-07-03T02:06:01;16.70;46.70
3256;DHT22;1640;48.504;9.224;2022-07-03T02:08:48;16.70;44.90
3256;DHT22;1640;48.504;9.224;2022-07-03T02:11:18;16.70;39.40
3256;DHT22;1640;48.504;9.224;2022-07-03T02:13:55;16.60;35.30
3256;DHT22;1640;48.504;9.224;2022-07-03T02:16:26;16.50;32.20
3256;DHT22;1640;48.504;9.224;2022-07-03T02:18:57;16.50;37.20
3256;DHT22;1640;48.504;9.224;2022-07-03T02:21:28;16.40;38.70
3256;DHT22;1640;48.504;9.224;2022-07-03T02:24:04;16.40;39.40
3256;DHT22;1640;48.504;9.224;2022-07-03T02:26:40;16.40;39.80
3256;DHT22;1640;48.504;9.224;2022-07-03T02:29:13;16.40;40.60
3256;DHT22;1640;48.504;9.224;2022-07-03T02:31:43;16.40;40.70
3256;DHT22;1640;48.504;9.224;2022-07-03T02:34:14;16.40;40.00
3256;DHT22;1640;48.504;9.224;2022-07-03T02:36:45;16.40;40.20
3256;DHT22;1640;48.504;9.224;2022-07-03T02:39:20;16.30;39.60
3256;DHT22;1640;48.504;9.224;2022-07-03T02:41:53;16.30;38.10
3256;DHT22;1640;48.504;9.224;2022-07-03T02:44:28;16.20;38.30
3256;DHT22;1640;48.504;9.224;2022-07-03T02:47:05;16.20;36.90
3256;DHT22;1640;48.504;9.224;2022-07-03T02:49:42;16.20;36.60
3256;DHT22;1640;48.504;9.224;2022-07-03T02:52:21;16.10;36.50
3256;DHT22;1640;48.504;9.224;2022-07-03T02:54:52;16.20;35.30
3256;DHT22;1640;48.504;9.224;2022-07-03T02:57:22;16.20;36.90
3256;DHT22;1640;48.504;9.224;2022-07-03T02:59:55;16.20;34.60
3256;DHT22;1640;48.504;9.224;2022-07-03T03:05:30;16.30;34.70
3256;DHT22;1640;48.504;9.224;2022-07-03T03:08:08;16.20;37.30
3256;DHT22;1640;48.504;9.224;2022-07-03T03:10:38;16.20;33.50
3256;DHT22;1640;48.504;9.224;2022-07-03T03:13:07;16.30;35.00
3256;DHT22;1640;48.504;9.224;2022-07-03T03:15:38;16.30;35.40
3256;DHT22;1640;48.504;9.224;2022-07-03T03:18:07;16.30;39.40
3256;DHT22;1640;48.504;9.224;2022-07-03T03:20:36;16.20;34.90
3256;DHT22;1640;48.504;9.224;2022-07-03T03:23:17;16.20;32.70
3256;DHT22;1640;48.504;9.224;2022-07-03T03:25:46;16.20;31.60
3256;DHT22;1640;48.504;9.224;2022-07-03T03:28:14;16.10;29.70
3256;DHT22;1640;48.504;9.224;2022-07-03T03:30:43;16.10;27.80
3256;DHT22;1640;48.504;9.224;2022-07-03T03:33:11;16.00;25.00
3256;DHT22;1640;48.504;9.224;2022-07-03T03:35:39;15.80;22.20
3256;DHT22;1640;48.504;9.224;2022-07-03T03:38:07;15.70;19.10
3256;DHT22;1640;48.504;9.224;2022-07-03T03:40:35;15.70;17.30
3256;DHT22;1640;48.504;9.224;2022-07-03T03:43:03;15.70;16.30
3256;DHT22;1640;48.504;9.224;2022-07-03T03:45:31;15.60;14.10
3256;DHT22;1640;48.504;9.224;2022-07-03T03:48:00;15.70;13.30
3256;DHT22;1640;48.504;9.224;2022-07-03T03:50:27;15.70;13.00
3256;DHT22;1640;48.504;9.224;2022-07-03T03:52:55;15.60;12.80
3256;DHT22;1640;48.504;9.224;2022-07-03T03:55:25;15.50;11.00
3256;DHT22;1640;48.504;9.224;2022-07-03T03:57:53;15.50;11.00
3256;DHT22;1640;48.504;9.224;2022-07-03T04:00:20;15.40;11.60
3256;DHT22;1640;48.504;9.224;2022-07-03T04:02:48;15.40;10.30
3256;DHT22;1640;48.504;9.224;2022-07-03T04:05:17;15.40;10.40
3256;DHT22;1640;48.504;9.224;2022-07-03T04:07:44;15.40;10.80
3256;DHT22;1640;48.504;9.224;2022-07-03T04:10:12;15.40;13.10
3256;DHT22;1640;48.504;9.224;2022-07-03T04:12:39;15.50;15.20
3256;DHT22;1640;48.504;9.224;2022-07-03T04:15:08;15.50;20.40
3256;DHT22;1640;48.504;9.224;2022-07-03T04:17:35;15.60;24.00
3256;DHT22;1640;48.504;9.224;2022-07-03T04:20:04;15.70;25.20
3256;DHT22;1640;48.504;9.224;2022-07-03T04:22:34;15.70;25.80
3256;DHT22;1640;48.504;9.224;2022-07-03T04:25:01;15.80;28.80
3256;DHT22;1640;48.504;9.224;2022-07-03T04:27:29;15.90;26.80
3256;DHT22;1640;48.504;9.224;2022-07-03T04:29:58;16.00;30.10
3256;DHT22;1640;48.504;9.224;2022-07-03T04:32:26;16.10;28.00
3256;DHT22;1640;48.504;9.224;2022-07-03T04:34:53;16.10;31.50
3256;DHT22;1640;48.504;9.224;2022-07-03T04:37:21;16.20;29.20
3256;DHT22;1640;48.504;9.224;2022-07-03T04:39:50;16.40;29.90
3256;DHT22;1640;48.504;9.224;2022-07-03T04:42:17;16.50;36.90
3256;DHT22;1640;48.504;9.224;2022-07-03T04:44:45;16.60;36.80
3256;DHT22;1640;48.504;9.224;2022-07-03T04:47:12;16.70;38.70
3256;DHT22;1640;48.504;9.224;2022-07-03T04:49:41;16.60;39.40
3256;DHT22;1640;48.504;9.224;2022-07-03T04:52:09;16.70;37.70
3256;DHT22;1640;48.504;9.224;2022-07-03T04:54:37;16.70;38.70
3256;DHT22;1640;48.504;9.224;2022-07-03T04:57:06;16.80;38.10
3256;DHT22;1640;48.504;9.224;2022-07-03T04:59:33;16.80;40.20
3256;DHT22;1640;48.504;9.224;2022-07-03T05:02:01;16.80;38.50
3256;DHT22;1640;48.504;9.224;2022-07-03T05:04:29;16.90;36.50
3256;DHT22;1640;48.504;9.224;2022-07-03T05:06:57;16.90;38.50
3256;DHT22;1640;48.504;9.224;2022-07-03T05:09:25;16.90;38.00
3256;DHT22;1640;48.504;9.224;2022-07-03T05:11:53;16.80;37.30
3256;DHT22;1640;48.504;9.224;2022-07-03T05:14:22;16.90;36.50
3256;DHT22;1640;48.504;9.224;2022-07-03T05:16:49;16.90;36.80
3256;DHT22;1640;48.504;9.224;2022-07-03T05:19:17;16.90;35.30
3256;DHT22;1640;48.504;9.224;2022-07-03T05:21:44;16.80;35.80
3256;DHT22;1640;48.504;9.224;2022-07-03T05:24:12;16.90;35.80
3256;DHT22;1640;48.504;9.224;2022-07-03T05:26:39;16.90;35.20
3256;DHT22;1640;48.504;9.224;2022-07-03T05:29:07;17.00;36.10
3256;DHT22;1640;48.504;9.224;2022-07-03T05:31:36;17.00;36.10
3256;DHT22;1640;48.504;9.224;2022-07-03T05:34:03;17.10;35.70
3256;DHT22;1640;48.504;9.224;2022-07-03T05:36:30;17.20;36.10
3256;DHT22;1640;48.504;9.224;2022-07-03T05:38:58;17.30;39.10
3256;DHT22;1640;48.504;9.224;2022-07-03T05:41:43;17.50;39.90
3256;DHT22;1640;48.504;9.224;2022-07-03T05:44:10;17.60;41.50
3256;DHT22;1640;48.504;9.224;2022-07-03T05:46:39;17.80;43.00
3256;DHT22;1640;48.504;9.224;2022-07-03T05:49:06;17.90;44.40
3256;DHT22;1640;48.504;9.224;2022-07-03T05:51:34;18.00;46.70
3256;DHT22;1640;48.504;9.224;2022-07-03T05:54:02;18.20;48.50
3256;DHT22;1640;48.504;9.224;2022-07-03T05:56:29;18.40;48.00
3256;DHT22;1640;48.504;9.224;2022-07-03T05:58:57;18.60;49.80
3256;DHT22;1640;48.504;9.224;2022-07-03T06:01:24;18.80;51.30
3256;DHT22;1640;48.504;9.224;2022-07-03T06:03:53;19.00;54.30
3256;DHT22;1640;48.504;9.224;2022-07-03T06:06:21;19.20;56.20
3256;DHT22;1640;48.504;9.224;2022-07-03T06:08:48;19.30;57.70
3256;DHT22;1640;48.504;9.224;2022-07-03T06:11:16;19.40;59.00
3256;DHT22;1640;48.504;9.224;2022-07-03T06:13:43;19.50;57.10
3256;DHT22;1640;48.504;9.224;2022-07-03T06:16:11;19.60;58.60
3256;DHT22;1640;48.504;9.224;2022-07-03T06:18:39;19.70;58.20
3256;DHT22;1640;48.504;9.224;2022-07-03T06:21:08;19.80;59.20
3256;DHT22;1640;48.504;9.224;2022-07-03T06:23:36;19.90;59.90
3256;DHT22;1640;48.504;9.224;2022-07-03T06:26:03;20.10;59.30
3256;DHT22;1640;48.504;9.224;2022-07-03T06:28:31;20.20;60.10
3256;DHT22;1640;48.504;9.224;2022-07-03T06:30:58;20.30;61.60
3256;DHT22;1640;48.504;9.224;2022-07-03T06:33:26;20.40;61.90
3256;DHT22;1640;48.504;9.224;2022-07-03T06:35:53;20.50;62.60
3256;DHT22;1640;48.504;9.224;2022-07-03T06:38:22;20.70;63.20
3256;DHT22;1640;48.504;9.224;2022-07-03T06:40:50;20.80;65.60
3256;DHT22;1640;48.504;9.224;2022-07-03T06:43:17;20.90;65.60
3256;DHT22;1640;48.504;9.224;2022-07-03T06:45:45;21.10;66.30
3256;DHT22;1640;48.504;9.224;2022-07-03T06:48:12;21.20;66.20
3256;DHT22;1640;48.504;9.224;2022-07-03T06:50:40;21.30;67.80
3256;DHT22;1640;48.504;9.224;2022-07-03T06:53:08;21.50;68.30
3256;DHT22;1640;48.504;9.224;2022-07-03T06:55:36;21.50;68.50
3256;DHT22;1640;48.504;9.224;2022-07-03T06:58:04;21.70;68.60
3256;DHT22;1640;48.504;9.224;2022-07-03T07:00:31;21.80;68.90
3256;DHT22;1640;48.504;9.224;2022-07-03T07:02:59;21.80;68.90
3256;DHT22;1640;48.504;9.224;2022-07-03T07:05:26;21.80;68.60
3256;DHT22;1640;48.504;9.224;2022-07-03T07:07:54;21.90;69.00
3256;DHT22;1640;48.504;9.224;2022-07-03T07:10:22;21.90;69.50
3256;DHT22;1640;48.504;9.224;2022-07-03T07:12:51;22.00;69.00
3256;DHT22;1640;48.504;9.224;2022-07-03T07:15:18;22.10;69.90
3256;DHT22;1640;48.504;9.224;2022-07-03T07:17:46;22.10;69.60
3256;DHT22;1640;48.504;9.224;2022-07-03T07:20:13;22.20;69.80
3256;DHT22;1640;48.504;9.224;2022-07-03T07:22:41;22.40;69.50
3256;DHT22;1640;48.504;9.224;2022-07-03T07:25:08;22.40;69.80
3256;DHT22;1640;48.504;9.224;2022-07-03T07:27:36;22.30;69.80
3256;DHT22;1640;48.504;9.224;2022-07-03T07:30:06;22.30;69.80
3256;DHT22;1640;48.504;9.224;2022-07-03T07:32:34;22.50;69.50
3256;DHT22;1640;48.504;9.224;2022-07-03T07:35:02;22.50;69.50
3256;DHT22;1640;48.504;9.224;2022-07-03T07:37:31;22.50;69.80
3256;DHT22;1640;48.504;9.224;2022-07-03T07:39:58;22.70;69.50
3256;DHT22;1640;48.504;9.224;2022-07-03T07:42:26;22.70;68.60
3256;DHT22;1640;48.504;9.224;2022-07-03T07:44:54;22.80;68.60
3256;DHT22;1640;48.504;9.224;2022-07-03T07:47:23;23.00;68.20
3256;DHT22;1640;48.504;9.224;2022-07-03T07:49:50;23.00;68.00
3256;DHT22;1640;48.504;9.224;2022-07-03T07:52:18;23.20;67.80
3256;DHT22;1640;48.504;9.224;2022-07-03T07:54:45;23.30;67.50
3256;DHT22;1640;48.504;9.224;2022-07-03T07:57:13;23.40;67.50
3256;DHT22;1640;48.504;9.224;2022-07-03T07:59:40;23.50;67.20
3256;DHT22;1640;48.504;9.224;2022-07-03T08:02:08;23.60;66.50
3256;DHT22;1640;48.504;9.224;2022-07-03T08:04:54;23.60;65.50
3256;DHT22;1640;48.504;9.224;2022-07-03T08:07:39;23.70;64.90
3256;DHT22;1640;48.504;9.224;2022-07-03T08:10:07;23.70;64.90
3256;DHT22;1640;48.504;9.224;2022-07-03T08:12:34;23.90;63.40
3256;DHT22;1640;48.504;9.224;2022-07-03T08:15:02;24.00;64.30
3256;DHT22;1640;48.504;9.224;2022-07-03T08:17:30;24.00;63.60
3256;DHT22;1640;48.504;9.224;2022-07-03T08:19:59;24.20;58.80
3256;DHT22;1640;48.504;9.224;2022-07-03T08:22:26;24.20;58.80
3256;DHT22;1640;48.504;9.224;2022-07-03T08:24:54;24.30;60.10
3256;DHT22;1640;48.504;9.224;2022-07-03T08:27:21;24.30;59.70
3256;DHT22;1640;48.504;9.224;2022-07-03T08:29:49;24.30;60.40
3256;DHT22;1640;48.504;9.224;2022-07-03T08:32:17;24.40;59.70
3256;DHT22;1640;48.504;9.224;2022-07-03T08:34:44;24.40;58.20
3256;DHT22;1640;48.504;9.224;2022-07-03T08:37:13;24.50;57.10
3256;DHT22;1640;48.504;9.224;2022-07-03T08:39:41;24.50;58.90
3256;DHT22;1640;48.504;9.224;2022-07-03T08:42:11;24.60;58.60
3256;DHT22;1640;48.504;9.224;2022-07-03T08:44:40;24.70;53.60
3256;DHT22;1640;48.504;9.224;2022-07-03T08:47:08;24.70;54.60
3256;DHT22;1640;48.504;9.224;2022-07-03T08:49:36;24.80;53.70
3256;DHT22;1640;48.504;9.224;2022-07-03T08:52:05;24.80;53.60
3256;DHT22;1640;48.504;9.224;2022-07-03T08:54:37;24.90;53.70
3256;DHT22;1640;48.504;9.224;2022-07-03T08:57:05;24.90;55.90
3256;DHT22;1640;48.504;9.224;2022-07-03T08:59:36;25.00;54.70
3256;DHT22;1640;48.504;9.224;2022-07-03T09:02:05;25.10;53.30
3256;DHT22;1640;48.504;9.224;2022-07-03T09:04:32;25.20;53.30
3256;DHT22;1640;48.504;9.224;2022-07-03T09:07:00;25.20;52.40
3256;DHT22;1640;48.504;9.224;2022-07-03T09:09:28;25.20;52.00
3256;DHT22;1640;48.504;9.224;2022-07-03T09:11:57;25.30;52.00
3256;DHT22;1640;48.504;9.224;2022-07-03T09:14:26;25.40;54.30
3256;DHT22;1640;48.504;9.224;2022-07-03T09:16:53;25.40;51.00
3256;DHT22;1640;48.504;9.224;2022-07-03T09:19:39;25.40;52.50
3256;DHT22;1640;48.504;9.224;2022-07-03T09:22:19;25.40;53.50
3256;DHT22;1640;48.504;9.224;2022-07-03T09:24:48;25.40;53.30
3256;DHT22;1640;48.504;9.224;2022-07-03T09:27:19;25.50;54.80
3256;DHT22;1640;48.504;9.224;2022-07-03T09:30:01;25.50;54.80
3256;DHT22;1640;48.504;9.224;2022-07-03T09:32:39;25.60;55.40
3256;DHT22;1640;48.504;9.224;2022-07-03T09:35:25;25.80;54.70
3256;DHT22;1640;48.504;9.224;2022-07-03T09:37:55;25.90;51.40
3256;DHT22;1640;48.504;9.224;2022-07-03T09:40:23;26.10;50.90
3256;DHT22;1640;48.504;9.224;2022-07-03T09:43:03;26.10;47.80
3256;DHT22;1640;48.504;9.224;2022-07-03T09:45:51;26.00;49.30
3256;DHT22;1640;48.504;9.224;2022-07-03T09:48:27;26.00;46.40
3256;DHT22;1640;48.504;9.224;2022-07-03T09:51:12;26.00;47.90
3256;DHT22;1640;48.504;9.224;2022-07-03T09:53:56;26.10;48.70
3256;DHT22;1640;48.504;9.224;2022-07-03T09:56:26;26.10;46.60
3256;DHT22;1640;48.504;9.224;2022-07-03T09:59:06;26.20;48.20
3256;DHT22;1640;48.504;9.224;2022-07-03T10:01:36;26.30;48.30
3256;DHT22;1640;48.504;9.224;2022-07-03T10:04:12;26.50;47.80
3256;DHT22;1640;48.504;9.224;2022-07-03T10:06:50;26.60;45.90
3256;DHT22;1640;48.504;9.224;2022-07-03T10:09:19;26.60;45.60
3256;DHT22;1640;48.504;9.224;2022-07-03T10:11:47;26.60;42.90
3256;DHT22;1640;48.504;9.224;2022-07-03T10:14:17;26.50;45.20
3256;DHT22;1640;48.504;9.224;2022-07-03T10:16:46;26.70;39.20
3256;DHT22;1640;48.504;9.224;2022-07-03T10:19:17;26.70;41.00
3256;DHT22;1640;48.504;9.224;2022-07-03T10:21:50;26.80;39.10
3256;DHT22;1640;48.504;9.224;2022-07-03T10:24:21;26.80;37.70
3256;DHT22;1640;48.504;9.224;2022-07-03T10:26:49;26.90;37.30
3256;DHT22;1640;48.504;9.224;2022-07-03T10:29:20;26.90;37.50
3256;DHT22;1640;48.504;9.224;2022-07-03T10:31:48;26.90;39.50
3256;DHT22;1640;48.504;9.224;2022-07-03T10:34:18;26.90;39.60
3256;DHT22;1640;48.504;9.224;2022-07-03T10:36:47;26.90;40.70
3256;DHT22;1640;48.504;9.224;2022-07-03T10:39:23;26.90;40.30
3256;DHT22;1640;48.504;9.224;2022-07-03T10:41:55;27.00;40.90
3256;DHT22;1640;48.504;9.224;2022-07-03T10:45:02;27.10;41.10
3256;DHT22;1640;48.504;9.224;2022-07-03T10:47:40;27.20;40.30
3256;DHT22;1640;48.504;9.224;2022-07-03T10:50:10;27.30;39.10
3256;DHT22;1640;48.504;9.224;2022-07-03T10:52:39;27.20;38.10
3256;DHT22;1640;48.504;9.224;2022-07-03T10:55:07;27.30;39.60
3256;DHT22;1640;48.504;9.224;2022-07-03T10:57:36;27.60;41.50
3256;DHT22;1640;48.504;9.224;2022-07-03T11:00:16;27.70;39.80
3256;DHT22;1640;48.504;9.224;2022-07-03T11:02:48;27.70;38.80
3256;DHT22;1640;48.504;9.224;2022-07-03T11:05:24;27.60;39.20
3256;DHT22;1640;48.504;9.224;2022-07-03T11:08:18;27.60;38.70
3256;DHT22;1640;48.504;9.224;2022-07-03T11:10:46;27.70;39.80
3256;DHT22;1640;48.504;9.224;2022-07-03T11:13:33;27.90;42.10
3256;DHT22;1640;48.504;9.224;2022-07-03T11:16:02;28.10;37.50
3256;DHT22;1640;48.504;9.224;2022-07-03T11:18:31;28.00;39.00
3256;DHT22;1640;48.504;9.224;2022-07-03T11:24:18;28.00;38.00
3256;DHT22;1640;48.504;9.224;2022-07-03T11:29:54;27.90;39.10
3256;DHT22;1640;48.504;9.224;2022-07-03T11:35:46;28.00;39.10
3256;DHT22;1640;48.504;9.224;2022-07-03T11:38:16;28.00;38.70
3256;DHT22;1640;48.504;9.224;2022-07-03T11:40:44;28.00;39.50
3256;DHT22;1640;48.504;9.224;2022-07-03T11:43:12;28.10;37.70
3256;DHT22;1640;48.504;9.224;2022-07-03T11:45:40;28.30;39.00
3256;DHT22;1640;48.504;9.224;2022-07-03T11:48:10;28.50;37.70
3256;DHT22;1640;48.504;9.224;2022-07-03T11:50:40;28.60;38.50
3256;DHT22;1640;48.504;9.224;2022-07-03T11:53:22;28.80;39.10
3256;DHT22;1640;48.504;9.224;2022-07-03T11:55:52;28.90;40.30
3256;DHT22;1640;48.504;9.224;2022-07-03T11:58:20;29.10;37.70
3256;DHT22;1640;48.504;9.224;2022-07-03T12:00:48;29.30;38.50
3256;DHT22;1640;48.504;9.224;2022-07-03T12:03:21;29.40;37.30
3256;DHT22;1640;48.504;9.224;2022-07-03T12:05:51;29.40;38.10
3256;DHT22;1640;48.504;9.224;2022-07-03T12:08:24;29.50;39.10
3256;DHT22;1640;48.504;9.224;2022-07-03T12:10:56;29.50;37.70
3256;DHT22;1640;48.504;9.224;2022-07-03T12:13:25;29.40;36.40
3256;DHT22;1640;48.504;9.224;2022-07-03T12:15:53;29.20;37.30
3256;DHT22;1640;48.504;9.224;2022-07-03T12:18:21;29.20;38.30
3256;DHT22;1640;48.504;9.224;2022-07-03T12:20:49;29.20;38.80
3256;DHT22;1640;48.504;9.224;2022-07-03T12:23:16;29.30;38.00
3256;DHT22;1640;48.504;9.224;2022-07-03T12:25:45;29.30;38.50
3256;DHT22;1640;48.504;9.224;2022-07-03T12:28:13;29.30;37.90
3256;DHT22;1640;48.504;9.224;2022-07-03T12:30:40;29.30;37.20
3256;DHT22;1640;48.504;9.224;2022-07-03T12:33:08;29.20;36.80
3256;DHT22;1640;48.504;9.224;2022-07-03T12:35:36;29.40;39.90
3256;DHT22;1640;48.504;9.224;2022-07-03T12:38:03;29.40;39.10
3256;DHT22;1640;48.504;9.224;2022-07-03T12:40:31;29.40;36.40
3256;DHT22;1640;48.504;9.224;2022-07-03T12:43:00;29.40;36.00
3256;DHT22;1640;48.504;9.224;2022-07-03T12:45:28;29.50;35.00
3256;DHT22;1640;48.504;9.224;2022-07-03T12:48:00;29.30;35.60
3256;DHT22;1640;48.504;9.224;2022-07-03T12:50:43;29.20;35.70
3256;DHT22;1640;48.504;9.224;2022-07-03T12:53:25;29.10;36.20
3256;DHT22;1640;48.504;9.224;2022-07-03T12:55:53;29.10;37.30
3256;DHT22;1640;48.504;9.224;2022-07-03T12:58:23;29.00;36.40
3256;DHT22;1640;48.504;9.224;2022-07-03T13:01:24;29.10;36.00
3256;DHT22;1640;48.504;9.224;2022-07-03T13:03:52;29.40;36.80
3256;DHT22;1640;48.504;9.224;2022-07-03T13:06:20;29.50;36.60
3256;DHT22;1640;48.504;9.224;2022-07-03T13:08:55;29.60;34.90
3256;DHT22;1640;48.504;9.224;2022-07-03T13:11:31;29.60;35.00
3256;DHT22;1640;48.504;9.224;2022-07-03T13:14:11;29.70;33.40
3256;DHT22;1640;48.504;9.224;2022-07-03T13:16:42;29.90;35.60
3256;DHT22;1640;48.504;9.224;2022-07-03T13:19:11;30.00;36.20
3256;DHT22;1640;48.504;9.224;2022-07-03T13:21:39;30.20;36.40
3256;DHT22;1640;48.504;9.224;2022-07-03T13:24:07;30.40;35.00
3256;DHT22;1640;48.504;9.224;2022-07-03T13:26:35;30.20;34.90
3256;DHT22;1640;48.504;9.224;2022-07-03T13:29:03;30.20;34.10
3256;DHT22;1640;48.504;9.224;2022-07-03T13:31:32;30.30;34.50
3256;DHT22;1640;48.504;9.224;2022-07-03T13:34:02;30.30;32.70
3256;DHT22;1640;48.504;9.224;2022-07-03T13:36:31;30.10;31.40
3256;DHT22;1640;48.504;9.224;2022-07-03T13:38:59;30.00;33.30
3256;DHT22;1640;48.504;9.224;2022-07-03T13:41:27;30.10;31.60
3256;DHT22;1640;48.504;9.224;2022-07-03T13:43:55;30.10;33.00
3256;DHT22;1640;48.504;9.224;2022-07-03T13:46:22;30.30;32.20
3256;DHT22;1640;48.504;9.224;2022-07-03T13:48:52;30.30;33.80
3256;DHT22;1640;48.504;9.224;2022-07-03T13:51:20;30.30;33.50
3256;DHT22;1640;48.504;9.224;2022-07-03T13:53:48;30.40;33.80
3256;DHT22;1640;48.504;9.224;2022-07-03T13:56:16;30.60;33.10
3256;DHT22;1640;48.504;9.224;2022-07-03T13:58:44;30.80;32.40
3256;DHT22;1640;48.504;9.224;2022-07-03T14:01:13;31.00;34.90
3256;DHT22;1640;48.504;9.224;2022-07-03T14:03:41;31.10;31.90
3256;DHT22;1640;48.504;9.224;2022-07-03T14:06:10;31.30;31.60
3256;DHT22;1640;48.504;9.224;2022-07-03T14:08:38;31.40;31.90
3256;DHT22;1640;48.504;9.224;2022-07-03T14:11:06;31.30;31.50
3256;DHT22;1640;48.504;9.224;2022-07-03T14:13:33;31.40;30.80
3256;DHT22;1640;48.504;9.224;2022-07-03T14:16:01;31.30;31.60
3256;DHT22;1640;48.504;9.224;2022-07-03T14:18:28;31.50;30.70
3256;DHT22;1640;48.504;9.224;2022-07-03T14:20:56;31.70;30.40
3256;DHT22;1640;48.504;9.224;2022-07-03T14:23:25;32.60;31.90
3256;DHT22;1640;48.504;9.224;2022-07-03T14:25:53;34.00;27.60
3256;DHT22;1640;48.504;9.224;2022-07-03T14:28:20;35.20;26.50
3256;DHT22;1640;48.504;9.224;2022-07-03T14:33:50;36.60;24.40
3256;DHT22;1640;48.504;9.224;2022-07-03T14:36:17;37.10;24.30
3256;DHT22;1640;48.504;9.224;2022-07-03T14:38:47;37.40;22.50
3256;DHT22;1640;48.504;9.224;2022-07-03T14:41:14;38.10;23.90
3256;DHT22;1640;48.504;9.224;2022-07-03T14:43:42;38.70;23.30
3256;DHT22;1640;48.504;9.224;2022-07-03T14:46:09;39.00;21.30
3256;DHT22;1640;48.504;9.224;2022-07-03T14:48:37;38.40;21.40
3256;DHT22;1640;48.504;9.224;2022-07-03T14:51:04;37.80;22.10
3256;DHT22;1640;48.504;9.224;2022-07-03T14:53:32;37.70;22.10
3256;DHT22;1640;48.504;9.224;2022-07-03T14:56:01;38.20;21.80
3256;DHT22;1640;48.504;9.224;2022-07-03T14:58:29;38.70;21.90
3256;DHT22;1640;48.504;9.224;2022-07-03T15:01:00;40.10;21.40
3256;DHT22;1640;48.504;9.224;2022-07-03T15:03:31;41.10;21.00
3256;DHT22;1640;48.504;9.224;2022-07-03T15:06:00;41.30;21.40
3256;DHT22;1640;48.504;9.224;2022-07-03T15:08:55;41.40;20.20
3256;DHT22;1640;48.504;9.224;2022-07-03T15:11:32;40.80;19.60
3256;DHT22;1640;48.504;9.224;2022-07-03T15:14:19;40.20;20.30
3256;DHT22;1640;48.504;9.224;2022-07-03T15:16:47;40.30;21.30
3256;DHT22;1640;48.504;9.224;2022-07-03T15:19:19;40.60;20.20
3256;DHT22;1640;48.504;9.224;2022-07-03T15:21:49;41.10;20.60
3256;DHT22;1640;48.504;9.224;2022-07-03T15:24:18;41.40;20.70
3256;DHT22;1640;48.504;9.224;2022-07-03T15:26:53;42.00;18.80
3256;DHT22;1640;48.504;9.224;2022-07-03T15:29:20;40.80;20.00
3256;DHT22;1640;48.504;9.224;2022-07-03T15:31:48;40.10;21.40
3256;DHT22;1640;48.504;9.224;2022-07-03T15:34:16;40.00;20.40
3256;DHT22;1640;48.504;9.224;2022-07-03T15:36:45;39.80;20.00
3256;DHT22;1640;48.504;9.224;2022-07-03T15:39:25;39.80;21.10
3256;DHT22;1640;48.504;9.224;2022-07-03T15:42:01;39.30;21.20
3256;DHT22;1640;48.504;9.224;2022-07-03T15:44:37;39.40;20.30
3256;DHT22;1640;48.504;9.224;2022-07-03T15:47:21;40.10;21.40
3256;DHT22;1640;48.504;9.224;2022-07-03T15:49:57;40.30;20.70
3256;DHT22;1640;48.504;9.224;2022-07-03T15:52:28;40.60;19.80
3256;DHT22;1640;48.504;9.224;2022-07-03T15:54:57;41.00;20.20
3256;DHT22;1640;48.504;9.224;2022-07-03T15:57:47;41.60;19.00
3256;DHT22;1640;48.504;9.224;2022-07-03T16:00:17;42.20;18.60
3256;DHT22;1640;48.504;9.224;2022-07-03T16:03:02;42.50;18.30
3256;DHT22;1640;48.504;9.224;2022-07-03T16:05:35;42.90;17.50
3256;DHT22;1640;48.504;9.224;2022-07-03T16:08:08;42.10;18.60
3256;DHT22;1640;48.504;9.224;2022-07-03T16:10:37;42.00;19.00
3256;DHT22;1640;48.504;9.224;2022-07-03T16:13:07;40.60;17.50
3256;DHT22;1640;48.504;9.224;2022-07-03T16:15:36;39.60;18.80
3256;DHT22;1640;48.504;9.224;2022-07-03T16:18:05;39.50;19.00
3256;DHT22;1640;48.504;9.224;2022-07-03T16:20:34;38.10;19.40
3256;DHT22;1640;48.504;9.224;2022-07-03T16:23:04;35.90;20.50
3256;DHT22;1640;48.504;9.224;2022-07-03T16:25:34;34.60;22.00
3256;DHT22;1640;48.504;9.224;2022-07-03T16:28:03;33.50;22.50
3256;DHT22;1640;48.504;9.224;2022-07-03T16:30:36;33.10;23.50
3256;DHT22;1640;48.504;9.224;2022-07-03T16:33:09;33.00;24.00
3256;DHT22;1640;48.504;9.224;2022-07-03T16:35:40;33.20;24.20
3256;DHT22;1640;48.504;9.224;2022-07-03T16:38:11;33.10;25.50
3256;DHT22;1640;48.504;9.224;2022-07-03T16:40:44;33.00;23.90